sensor_id;sensor_type;location;lat;lon;timestamp;P1;durP1;ratioP1;P2;durP2;ratioP2
34204;SDS011;20471;49.680;20.074;2023-06-22T00:05:39;7.30;;;4.60;;
34204;SDS011;20471;49.680;20.074;2023-06-22T00:11:29;7.40;;;4.10;;
34204;SDS011;20471;49.680;20.074;2023-06-22T00:13:58;6.30;;;4.30;;
34204;SDS011;20471;49.680;20.074;2023-06-22T00:17:00;11.20;;;4.80;;
34204;SDS011;20471;49.680;20.074;2023-06-22T00:19:41;7.50;;;4.70;;
34204;SDS011;20471;49.680;20.074;2023-06-22T00:22:08;6.20;;;4.20;;
34204;SDS011;20471;49.680;20.074;2023-06-22T00:28:07;6.20;;;4.60;;
34204;SDS011;20471;49.680;20.074;2023-06-22T00:30:35;11.90;;;4.90;;
34204;SDS011;20471;49.680;20.074;2023-06-22T00:33:05;9.90;;;5.00;;
34204;SDS011;20471;49.680;20.074;2023-06-22T00:35:36;13.00;;;5.40;;
34204;SDS011;20471;49.680;20.074;2023-06-22T00:38:08;10.30;;;5.20;;
34204;SDS011;20471;49.680;20.074;2023-06-22T00:40:36;12.50;;;4.60;;
34204;SDS011;20471;49.680;20.074;2023-06-22T00:43:05;7.80;;;4.70;;
34204;SDS011;20471;49.680;20.074;2023-06-22T00:49:24;5.50;;;4.50;;
34204;SDS011;20471;49.680;20.074;2023-06-22T00:51:50;6.80;;;4.20;;
34204;SDS011;20471;49.680;20.074;2023-06-22T00:54:31;6.80;;;4.50;;
34204;SDS011;20471;49.680;20.074;2023-06-22T00:57:45;10.80;;;4.60;;
34204;SDS011;20471;49.680;20.074;2023-06-22T01:03:54;11.40;;;4.60;;
34204;SDS011;20471;49.680;20.074;2023-06-22T01:06:32;10.00;;;4.90;;
34204;SDS011;20471;49.680;20.074;2023-06-22T01:09:22;7.40;;;5.20;;
34204;SDS011;20471;49.680;20.074;2023-06-22T01:12:59;7.40;;;4.60;;
34204;SDS011;20471;49.680;20.074;2023-06-22T01:18:52;8.80;;;4.70;;
34204;SDS011;20471;49.680;20.074;2023-06-22T01:21:45;7.70;;;4.30;;
34204;SDS011;20471;49.680;20.074;2023-06-22T01:37:11;10.20;;;4.40;;
34204;SDS011;20471;49.680;20.074;2023-06-22T01:39:39;8.20;;;4.90;;
34204;SDS011;20471;49.680;20.074;2023-06-22T01:43:17;8.20;;;5.20;;
34204;SDS011;20471;49.680;20.074;2023-06-22T01:46:27;5.80;;;4.00;;
34204;SDS011;20471;49.680;20.074;2023-06-22T01:48:55;8.70;;;4.60;;
34204;SDS011;20471;49.680;20.074;2023-06-22T01:51:21;6.50;;;4.60;;
34204;SDS011;20471;49.680;20.074;2023-06-22T01:56:20;9.10;;;4.60;;
34204;SDS011;20471;49.680;20.074;2023-06-22T02:01:58;9.80;;;5.20;;
34204;SDS011;20471;49.680;20.074;2023-06-22T02:08:09;10.20;;;5.10;;
34204;SDS011;20471;49.680;20.074;2023-06-22T02:10:57;7.10;;;4.40;;
34204;SDS011;20471;49.680;20.074;2023-06-22T02:13:46;12.90;;;4.40;;
34204;SDS011;20471;49.680;20.074;2023-06-22T02:16:13;6.70;;;4.70;;
34204;SDS011;20471;49.680;20.074;2023-06-22T02:18:51;7.40;;;4.60;;
34204;SDS011;20471;49.680;20.074;2023-06-22T02:21:18;9.90;;;4.40;;
34204;SDS011;20471;49.680;20.074;2023-06-22T02:23:53;9.50;;;4.70;;
34204;SDS011;20471;49.680;20.074;2023-06-22T02:26:19;6.80;;;4.70;;
34204;SDS011;20471;49.680;20.074;2023-06-22T02:29:01;7.60;;;5.20;;
34204;SDS011;20471;49.680;20.074;2023-06-22T02:31:27;7.20;;;4.60;;
34204;SDS011;20471;49.680;20.074;2023-06-22T02:34:32;6.80;;;4.40;;
34204;SDS011;20471;49.680;20.074;2023-06-22T02:37:05;7.20;;;3.80;;
34204;SDS011;20471;49.680;20.074;2023-06-22T02:39:51;7.00;;;4.30;;
34204;SDS011;20471;49.680;20.074;2023-06-22T02:42:20;9.70;;;5.10;;
34204;SDS011;20471;49.680;20.074;2023-06-22T02:44:50;7.00;;;5.00;;
34204;SDS011;20471;49.680;20.074;2023-06-22T02:47:49;7.10;;;5.10;;
34204;SDS011;20471;49.680;20.074;2023-06-22T02:50:15;13.70;;;4.90;;
34204;SDS011;20471;49.680;20.074;2023-06-22T02:52:45;10.20;;;5.30;;
34204;SDS011;20471;49.680;20.074;2023-06-22T02:58:24;9.00;;;5.60;;
34204;SDS011;20471;49.680;20.074;2023-06-22T03:00:50;7.30;;;5.20;;
34204;SDS011;20471;49.680;20.074;2023-06-22T03:03:39;11.40;;;5.90;;
34204;SDS011;20471;49.680;20.074;2023-06-22T03:09:19;10.90;;;6.90;;
34204;SDS011;20471;49.680;20.074;2023-06-22T03:11:46;12.40;;;6.00;;
34204;SDS011;20471;49.680;20.074;2023-06-22T03:14:18;11.60;;;6.80;;
34204;SDS011;20471;49.680;20.074;2023-06-22T03:16:44;13.00;;;6.40;;
34204;SDS011;20471;49.680;20.074;2023-06-22T03:26:41;12.90;;;7.10;;
34204;SDS011;20471;49.680;20.074;2023-06-22T03:29:15;12.60;;;7.10;;
34204;SDS011;20471;49.680;20.074;2023-06-22T03:31:56;14.00;;;7.60;;
34204;SDS011;20471;49.680;20.074;2023-06-22T03:37:40;9.70;;;6.70;;
34204;SDS011;20471;49.680;20.074;2023-06-22T03:40:41;10.80;;;6.80;;
34204;SDS011;20471;49.680;20.074;2023-06-22T03:43:24;8.90;;;6.20;;
34204;SDS011;20471;49.680;20.074;2023-06-22T03:45:56;10.50;;;6.40;;
34204;SDS011;20471;49.680;20.074;2023-06-22T03:48:43;11.20;;;6.60;;
34204;SDS011;20471;49.680;20.074;2023-06-22T03:54:42;9.70;;;6.20;;
34204;SDS011;20471;49.680;20.074;2023-06-22T03:58:06;14.40;;;6.90;;
34204;SDS011;20471;49.680;20.074;2023-06-22T04:00:35;14.40;;;7.50;;
34204;SDS011;20471;49.680;20.074;2023-06-22T04:03:23;14.10;;;7.20;;
34204;SDS011;20471;49.680;20.074;2023-06-22T04:06:00;11.40;;;7.50;;
34204;SDS011;20471;49.680;20.074;2023-06-22T04:08:51;11.40;;;6.70;;
34204;SDS011;20471;49.680;20.074;2023-06-22T04:11:29;8.80;;;6.90;;
34204;SDS011;20471;49.680;20.074;2023-06-22T04:13:55;12.30;;;7.70;;
34204;SDS011;20471;49.680;20.074;2023-06-22T04:16:21;12.70;;;7.60;;
34204;SDS011;20471;49.680;20.074;2023-06-22T04:18:57;12.00;;;7.90;;
34204;SDS011;20471;49.680;20.074;2023-06-22T04:21:23;12.20;;;8.30;;
34204;SDS011;20471;49.680;20.074;2023-06-22T04:24:04;9.10;;;7.00;;
34204;SDS011;20471;49.680;20.074;2023-06-22T04:26:52;16.60;;;8.40;;
34204;SDS011;20471;49.680;20.074;2023-06-22T04:29:40;10.70;;;7.70;;
34204;SDS011;20471;49.680;20.074;2023-06-22T04:32:48;14.50;;;8.20;;
34204;SDS011;20471;49.680;20.074;2023-06-22T04:35:49;12.60;;;8.00;;
34204;SDS011;20471;49.680;20.074;2023-06-22T04:38:17;15.80;;;7.30;;
34204;SDS011;20471;49.680;20.074;2023-06-22T04:41:15;14.60;;;7.90;;
34204;SDS011;20471;49.680;20.074;2023-06-22T04:44:03;10.50;;;7.40;;
34204;SDS011;20471;49.680;20.074;2023-06-22T04:46:56;13.40;;;7.60;;
34204;SDS011;20471;49.680;20.074;2023-06-22T04:49:41;17.00;;;9.00;;
34204;SDS011;20471;49.680;20.074;2023-06-22T04:52:09;15.20;;;8.20;;
34204;SDS011;20471;49.680;20.074;2023-06-22T04:57:46;10.40;;;7.80;;
34204;SDS011;20471;49.680;20.074;2023-06-22T05:00:41;16.50;;;8.50;;
34204;SDS011;20471;49.680;20.074;2023-06-22T05:06:49;15.20;;;8.10;;
34204;SDS011;20471;49.680;20.074;2023-06-22T05:09:21;10.40;;;7.90;;
34204;SDS011;20471;49.680;20.074;2023-06-22T05:11:48;9.50;;;8.30;;
34204;SDS011;20471;49.680;20.074;2023-06-22T05:14:17;13.20;;;7.50;;
34204;SDS011;20471;49.680;20.074;2023-06-22T05:16:50;10.20;;;7.60;;
34204;SDS011;20471;49.680;20.074;2023-06-22T05:19:20;10.60;;;8.30;;
34204;SDS011;20471;49.680;20.074;2023-06-22T05:22:32;12.60;;;8.10;;
34204;SDS011;20471;49.680;20.074;2023-06-22T05:30:40;11.90;;;7.00;;
34204;SDS011;20471;49.680;20.074;2023-06-22T05:33:10;10.10;;;7.90;;
34204;SDS011;20471;49.680;20.074;2023-06-22T05:35:37;10.20;;;7.00;;
34204;SDS011;20471;49.680;20.074;2023-06-22T05:38:13;9.30;;;7.40;;
34204;SDS011;20471;49.680;20.074;2023-06-22T05:41:05;13.00;;;7.40;;
34204;SDS011;20471;49.680;20.074;2023-06-22T05:43:47;10.20;;;7.00;;
34204;SDS011;20471;49.680;20.074;2023-06-22T05:46:13;10.70;;;7.40;;
34204;SDS011;20471;49.680;20.074;2023-06-22T05:48:42;13.00;;;7.40;;
34204;SDS011;20471;49.680;20.074;2023-06-22T05:51:09;13.60;;;8.40;;
34204;SDS011;20471;49.680;20.074;2023-06-22T05:53:38;11.20;;;7.30;;
34204;SDS011;20471;49.680;20.074;2023-06-22T05:56:04;11.00;;;7.40;;
34204;SDS011;20471;49.680;20.074;2023-06-22T05:58:31;13.10;;;8.20;;
34204;SDS011;20471;49.680;20.074;2023-06-22T06:00:57;12.80;;;8.20;;
34204;SDS011;20471;49.680;20.074;2023-06-22T06:03:23;15.20;;;7.90;;
34204;SDS011;20471;49.680;20.074;2023-06-22T06:05:55;16.60;;;7.50;;
34204;SDS011;20471;49.680;20.074;2023-06-22T06:10:48;11.90;;;8.00;;
34204;SDS011;20471;49.680;20.074;2023-06-22T06:13:14;14.30;;;8.00;;
34204;SDS011;20471;49.680;20.074;2023-06-22T06:18:43;11.30;;;7.30;;
34204;SDS011;20471;49.680;20.074;2023-06-22T06:21:12;10.30;;;7.10;;
34204;SDS011;20471;49.680;20.074;2023-06-22T06:23:38;10.20;;;7.10;;
34204;SDS011;20471;49.680;20.074;2023-06-22T06:26:05;13.20;;;7.30;;
34204;SDS011;20471;49.680;20.074;2023-06-22T06:28:32;10.60;;;7.30;;
34204;SDS011;20471;49.680;20.074;2023-06-22T06:31:01;14.80;;;7.20;;
34204;SDS011;20471;49.680;20.074;2023-06-22T06:33:28;11.70;;;7.20;;
34204;SDS011;20471;49.680;20.074;2023-06-22T06:38:57;8.80;;;7.40;;
34204;SDS011;20471;49.680;20.074;2023-06-22T06:43:50;8.40;;;6.00;;
34204;SDS011;20471;49.680;20.074;2023-06-22T06:46:20;7.90;;;6.80;;
34204;SDS011;20471;49.680;20.074;2023-06-22T06:48:46;11.90;;;7.00;;
34204;SDS011;20471;49.680;20.074;2023-06-22T06:51:13;14.20;;;6.60;;
34204;SDS011;20471;49.680;20.074;2023-06-22T06:53:39;8.60;;;6.50;;
34204;SDS011;20471;49.680;20.074;2023-06-22T06:59:19;9.60;;;6.80;;
34204;SDS011;20471;49.680;20.074;2023-06-22T07:01:46;7.60;;;6.30;;
34204;SDS011;20471;49.680;20.074;2023-06-22T07:04:16;7.60;;;6.40;;
34204;SDS011;20471;49.680;20.074;2023-06-22T07:06:43;9.10;;;6.70;;
34204;SDS011;20471;49.680;20.074;2023-06-22T07:09:09;9.10;;;6.50;;
34204;SDS011;20471;49.680;20.074;2023-06-22T07:11:38;8.50;;;6.90;;
34204;SDS011;20471;49.680;20.074;2023-06-22T07:14:05;11.10;;;7.00;;
34204;SDS011;20471;49.680;20.074;2023-06-22T07:16:41;10.70;;;7.90;;
34204;SDS011;20471;49.680;20.074;2023-06-22T07:19:13;10.20;;;6.50;;
34204;SDS011;20471;49.680;20.074;2023-06-22T07:21:39;9.40;;;6.80;;
34204;SDS011;20471;49.680;20.074;2023-06-22T07:27:01;11.70;;;7.20;;
34204;SDS011;20471;49.680;20.074;2023-06-22T07:29:29;11.10;;;6.90;;
34204;SDS011;20471;49.680;20.074;2023-06-22T07:31:58;8.10;;;7.10;;
34204;SDS011;20471;49.680;20.074;2023-06-22T07:34:26;8.70;;;6.60;;
34204;SDS011;20471;49.680;20.074;2023-06-22T07:36:55;10.50;;;7.30;;
34204;SDS011;20471;49.680;20.074;2023-06-22T07:39:26;6.80;;;6.00;;
34204;SDS011;20471;49.680;20.074;2023-06-22T07:41:53;10.40;;;7.10;;
34204;SDS011;20471;49.680;20.074;2023-06-22T07:44:25;9.30;;;6.80;;
34204;SDS011;20471;49.680;20.074;2023-06-22T07:46:52;12.30;;;7.40;;
34204;SDS011;20471;49.680;20.074;2023-06-22T07:49:20;11.70;;;7.30;;
34204;SDS011;20471;49.680;20.074;2023-06-22T07:51:58;12.10;;;7.50;;
34204;SDS011;20471;49.680;20.074;2023-06-22T07:54:32;10.70;;;7.90;;
34204;SDS011;20471;49.680;20.074;2023-06-22T07:57:06;11.70;;;7.80;;
34204;SDS011;20471;49.680;20.074;2023-06-22T07:59:32;11.10;;;7.50;;
34204;SDS011;20471;49.680;20.074;2023-06-22T08:01:59;9.90;;;8.10;;
34204;SDS011;20471;49.680;20.074;2023-06-22T08:04:28;8.90;;;8.00;;
34204;SDS011;20471;49.680;20.074;2023-06-22T08:06:56;9.20;;;8.00;;
34204;SDS011;20471;49.680;20.074;2023-06-22T08:09:27;10.60;;;8.60;;
34204;SDS011;20471;49.680;20.074;2023-06-22T08:12:00;12.80;;;9.50;;
34204;SDS011;20471;49.680;20.074;2023-06-22T08:14:32;13.50;;;8.70;;
34204;SDS011;20471;49.680;20.074;2023-06-22T08:17:01;11.90;;;9.00;;
34204;SDS011;20471;49.680;20.074;2023-06-22T08:19:31;9.40;;;8.20;;
34204;SDS011;20471;49.680;20.074;2023-06-22T08:21:58;11.70;;;8.80;;
34204;SDS011;20471;49.680;20.074;2023-06-22T08:24:24;10.10;;;9.00;;
34204;SDS011;20471;49.680;20.074;2023-06-22T08:26:51;10.10;;;8.60;;
34204;SDS011;20471;49.680;20.074;2023-06-22T08:29:35;11.80;;;9.40;;
34204;SDS011;20471;49.680;20.074;2023-06-22T08:32:02;11.40;;;9.90;;
34204;SDS011;20471;49.680;20.074;2023-06-22T08:34:29;13.00;;;10.40;;
34204;SDS011;20471;49.680;20.074;2023-06-22T08:37:10;15.50;;;12.00;;
34204;SDS011;20471;49.680;20.074;2023-06-22T08:39:39;13.10;;;11.30;;
34204;SDS011;20471;49.680;20.074;2023-06-22T08:42:25;19.20;;;10.50;;
34204;SDS011;20471;49.680;20.074;2023-06-22T08:44:51;11.90;;;9.60;;
34204;SDS011;20471;49.680;20.074;2023-06-22T08:47:28;12.10;;;9.60;;
34204;SDS011;20471;49.680;20.074;2023-06-22T08:49:54;12.80;;;9.50;;
34204;SDS011;20471;49.680;20.074;2023-06-22T08:52:20;13.70;;;9.40;;
34204;SDS011;20471;49.680;20.074;2023-06-22T08:54:51;11.00;;;9.50;;
34204;SDS011;20471;49.680;20.074;2023-06-22T08:57:34;11.20;;;10.10;;
34204;SDS011;20471;49.680;20.074;2023-06-22T09:03:13;14.70;;;11.80;;
34204;SDS011;20471;49.680;20.074;2023-06-22T09:05:40;16.90;;;11.90;;
34204;SDS011;20471;49.680;20.074;2023-06-22T09:08:06;15.90;;;11.60;;
34204;SDS011;20471;49.680;20.074;2023-06-22T09:10:49;12.20;;;11.10;;
34204;SDS011;20471;49.680;20.074;2023-06-22T09:13:15;14.00;;;12.60;;
34204;SDS011;20471;49.680;20.074;2023-06-22T09:15:42;14.30;;;12.80;;
34204;SDS011;20471;49.680;20.074;2023-06-22T09:18:14;15.30;;;13.80;;
34204;SDS011;20471;49.680;20.074;2023-06-22T09:20:40;16.20;;;14.30;;
34204;SDS011;20471;49.680;20.074;2023-06-22T09:23:09;16.60;;;13.90;;
34204;SDS011;20471;49.680;20.074;2023-06-22T09:25:35;14.80;;;12.50;;
34204;SDS011;20471;49.680;20.074;2023-06-22T09:28:02;15.10;;;12.60;;
34204;SDS011;20471;49.680;20.074;2023-06-22T09:30:33;18.80;;;13.50;;
34204;SDS011;20471;49.680;20.074;2023-06-22T09:33:00;14.80;;;11.50;;
34204;SDS011;20471;49.680;20.074;2023-06-22T09:35:28;13.80;;;12.30;;
34204;SDS011;20471;49.680;20.074;2023-06-22T09:37:54;12.60;;;11.20;;
34204;SDS011;20471;49.680;20.074;2023-06-22T09:40:21;11.40;;;10.20;;
34204;SDS011;20471;49.680;20.074;2023-06-22T09:42:56;13.90;;;10.50;;
34204;SDS011;20471;49.680;20.074;2023-06-22T09:45:34;13.20;;;11.70;;
34204;SDS011;20471;49.680;20.074;2023-06-22T09:48:00;13.10;;;11.10;;
34204;SDS011;20471;49.680;20.074;2023-06-22T09:50:52;12.80;;;11.30;;
34204;SDS011;20471;49.680;20.074;2023-06-22T09:53:18;12.40;;;11.30;;
34204;SDS011;20471;49.680;20.074;2023-06-22T09:55:54;12.50;;;11.30;;
34204;SDS011;20471;49.680;20.074;2023-06-22T09:58:20;13.90;;;12.50;;
34204;SDS011;20471;49.680;20.074;2023-06-22T10:00:46;17.30;;;12.70;;
34204;SDS011;20471;49.680;20.074;2023-06-22T10:03:12;14.90;;;12.90;;
34204;SDS011;20471;49.680;20.074;2023-06-22T10:05:44;17.60;;;13.30;;
34204;SDS011;20471;49.680;20.074;2023-06-22T10:08:31;14.20;;;12.60;;
34204;SDS011;20471;49.680;20.074;2023-06-22T10:10:57;17.00;;;14.00;;
34204;SDS011;20471;49.680;20.074;2023-06-22T10:13:27;15.20;;;13.80;;
34204;SDS011;20471;49.680;20.074;2023-06-22T10:15:55;14.90;;;13.50;;
34204;SDS011;20471;49.680;20.074;2023-06-22T10:18:38;15.80;;;14.10;;
34204;SDS011;20471;49.680;20.074;2023-06-22T10:21:04;16.10;;;13.70;;
34204;SDS011;20471;49.680;20.074;2023-06-22T10:23:33;15.90;;;14.40;;
34204;SDS011;20471;49.680;20.074;2023-06-22T10:26:08;15.60;;;14.00;;
34204;SDS011;20471;49.680;20.074;2023-06-22T10:31:22;19.10;;;16.00;;
34204;SDS011;20471;49.680;20.074;2023-06-22T10:33:49;17.10;;;15.40;;
34204;SDS011;20471;49.680;20.074;2023-06-22T10:36:15;19.50;;;16.60;;
34204;SDS011;20471;49.680;20.074;2023-06-22T10:39:15;18.60;;;16.80;;
34204;SDS011;20471;49.680;20.074;2023-06-22T10:41:53;17.10;;;15.60;;
34204;SDS011;20471;49.680;20.074;2023-06-22T10:44:29;18.70;;;16.80;;
34204;SDS011;20471;49.680;20.074;2023-06-22T10:57:44;18.20;;;15.70;;
34204;SDS011;20471;49.680;20.074;2023-06-22T11:00:36;16.80;;;15.40;;
34204;SDS011;20471;49.680;20.074;2023-06-22T11:06:40;18.70;;;16.80;;
34204;SDS011;20471;49.680;20.074;2023-06-22T11:09:12;21.30;;;17.50;;
34204;SDS011;20471;49.680;20.074;2023-06-22T11:11:48;19.30;;;17.40;;
34204;SDS011;20471;49.680;20.074;2023-06-22T11:14:25;22.00;;;19.60;;
34204;SDS011;20471;49.680;20.074;2023-06-22T11:17:15;20.40;;;18.40;;
34204;SDS011;20471;49.680;20.074;2023-06-22T11:19:43;21.00;;;19.10;;
34204;SDS011;20471;49.680;20.074;2023-06-22T11:22:26;21.40;;;18.80;;
34204;SDS011;20471;49.680;20.074;2023-06-22T11:24:52;21.30;;;19.20;;
34204;SDS011;20471;49.680;20.074;2023-06-22T11:27:24;21.40;;;19.40;;
34204;SDS011;20471;49.680;20.074;2023-06-22T11:29:50;21.00;;;19.00;;
34204;SDS011;20471;49.680;20.074;2023-06-22T11:32:18;21.00;;;19.00;;
34204;SDS011;20471;49.680;20.074;2023-06-22T11:34:53;22.40;;;20.20;;
34204;SDS011;20471;49.680;20.074;2023-06-22T11:37:20;21.50;;;19.40;;
34204;SDS011;20471;49.680;20.074;2023-06-22T11:39:46;22.50;;;20.30;;
34204;SDS011;20471;49.680;20.074;2023-06-22T11:42:12;23.50;;;21.00;;
34204;SDS011;20471;49.680;20.074;2023-06-22T11:44:42;23.20;;;20.80;;
34204;SDS011;20471;49.680;20.074;2023-06-22T11:47:09;22.70;;;20.40;;
34204;SDS011;20471;49.680;20.074;2023-06-22T11:49:35;23.00;;;20.80;;
34204;SDS011;20471;49.680;20.074;2023-06-22T11:52:08;23.50;;;21.20;;
34204;SDS011;20471;49.680;20.074;2023-06-22T11:54:43;23.30;;;20.50;;
34204;SDS011;20471;49.680;20.074;2023-06-22T11:57:09;22.30;;;20.00;;
34204;SDS011;20471;49.680;20.074;2023-06-22T11:59:36;23.30;;;21.20;;
34204;SDS011;20471;49.680;20.074;2023-06-22T12:02:08;22.60;;;20.30;;
34204;SDS011;20471;49.680;20.074;2023-06-22T12:04:35;22.80;;;20.50;;
34204;SDS011;20471;49.680;20.074;2023-06-22T12:07:02;26.30;;;21.20;;
34204;SDS011;20471;49.680;20.074;2023-06-22T12:09:31;22.20;;;19.90;;
34204;SDS011;20471;49.680;20.074;2023-06-22T12:12:37;22.60;;;20.40;;
34204;SDS011;20471;49.680;20.074;2023-06-22T12:15:31;23.10;;;20.60;;
34204;SDS011;20471;49.680;20.074;2023-06-22T12:18:02;24.00;;;21.70;;
34204;SDS011;20471;49.680;20.074;2023-06-22T12:20:29;22.50;;;20.30;;
34204;SDS011;20471;49.680;20.074;2023-06-22T12:23:19;23.00;;;20.70;;
34204;SDS011;20471;49.680;20.074;2023-06-22T12:25:48;22.30;;;20.10;;
34204;SDS011;20471;49.680;20.074;2023-06-22T12:28:23;22.20;;;20.00;;
34204;SDS011;20471;49.680;20.074;2023-06-22T12:30:50;23.20;;;20.90;;
34204;SDS011;20471;49.680;20.074;2023-06-22T12:33:16;22.00;;;19.40;;
34204;SDS011;20471;49.680;20.074;2023-06-22T12:35:51;20.60;;;17.60;;
34204;SDS011;20471;49.680;20.074;2023-06-22T12:38:27;19.70;;;17.70;;
34204;SDS011;20471;49.680;20.074;2023-06-22T12:40:53;18.60;;;16.70;;
34204;SDS011;20471;49.680;20.074;2023-06-22T12:43:20;17.90;;;16.20;;
34204;SDS011;20471;49.680;20.074;2023-06-22T12:45:46;16.80;;;15.30;;
34204;SDS011;20471;49.680;20.074;2023-06-22T12:48:13;17.20;;;15.50;;
34204;SDS011;20471;49.680;20.074;2023-06-22T12:53:59;16.70;;;14.80;;
34204;SDS011;20471;49.680;20.074;2023-06-22T12:56:26;17.40;;;14.40;;
34204;SDS011;20471;49.680;20.074;2023-06-22T12:58:52;17.40;;;15.80;;
34204;SDS011;20471;49.680;20.074;2023-06-22T13:01:19;17.00;;;15.40;;
34204;SDS011;20471;49.680;20.074;2023-06-22T13:03:57;17.30;;;15.50;;
34204;SDS011;20471;49.680;20.074;2023-06-22T13:06:33;17.20;;;15.40;;
34204;SDS011;20471;49.680;20.074;2023-06-22T13:08:59;16.30;;;14.80;;
34204;SDS011;20471;49.680;20.074;2023-06-22T13:11:27;16.20;;;14.40;;
34204;SDS011;20471;49.680;20.074;2023-06-22T13:13:56;16.50;;;14.90;;
34204;SDS011;20471;49.680;20.074;2023-06-22T13:16:23;16.30;;;14.60;;
34204;SDS011;20471;49.680;20.074;2023-06-22T13:19:04;15.90;;;14.30;;
34204;SDS011;20471;49.680;20.074;2023-06-22T13:21:30;16.20;;;14.80;;
34204;SDS011;20471;49.680;20.074;2023-06-22T13:23:59;16.70;;;14.70;;
34204;SDS011;20471;49.680;20.074;2023-06-22T13:26:26;15.50;;;13.90;;
34204;SDS011;20471;49.680;20.074;2023-06-22T13:28:54;16.70;;;14.60;;
34204;SDS011;20471;49.680;20.074;2023-06-22T13:31:27;16.10;;;14.40;;
34204;SDS011;20471;49.680;20.074;2023-06-22T13:33:54;16.60;;;14.90;;
34204;SDS011;20471;49.680;20.074;2023-06-22T13:36:48;15.40;;;13.80;;
34204;SDS011;20471;49.680;20.074;2023-06-22T13:39:17;16.60;;;15.00;;
34204;SDS011;20471;49.680;20.074;2023-06-22T13:41:46;16.30;;;13.50;;
34204;SDS011;20471;49.680;20.074;2023-06-22T13:47:13;15.00;;;13.60;;
34204;SDS011;20471;49.680;20.074;2023-06-22T13:49:39;15.60;;;14.10;;
34204;SDS011;20471;49.680;20.074;2023-06-22T13:52:09;15.10;;;13.60;;
34204;SDS011;20471;49.680;20.074;2023-06-22T13:54:39;15.80;;;14.00;;
34204;SDS011;20471;49.680;20.074;2023-06-22T13:57:08;16.10;;;14.00;;
34204;SDS011;20471;49.680;20.074;2023-06-22T14:02:26;15.40;;;13.80;;
34204;SDS011;20471;49.680;20.074;2023-06-22T14:05:01;15.30;;;13.80;;
34204;SDS011;20471;49.680;20.074;2023-06-22T14:07:30;15.30;;;13.80;;
34204;SDS011;20471;49.680;20.074;2023-06-22T14:09:57;15.50;;;14.00;;
34204;SDS011;20471;49.680;20.074;2023-06-22T14:12:26;15.40;;;14.00;;
34204;SDS011;20471;49.680;20.074;2023-06-22T14:14:58;15.10;;;13.80;;
34204;SDS011;20471;49.680;20.074;2023-06-22T14:17:28;16.30;;;14.70;;
34204;SDS011;20471;49.680;20.074;2023-06-22T14:19:57;15.00;;;13.50;;
34204;SDS011;20471;49.680;20.074;2023-06-22T14:22:23;15.90;;;14.30;;
34204;SDS011;20471;49.680;20.074;2023-06-22T14:24:53;15.30;;;13.80;;
34204;SDS011;20471;49.680;20.074;2023-06-22T14:27:24;14.30;;;12.90;;
34204;SDS011;20471;49.680;20.074;2023-06-22T14:30:00;15.80;;;14.20;;
34204;SDS011;20471;49.680;20.074;2023-06-22T14:32:49;14.20;;;12.70;;
34204;SDS011;20471;49.680;20.074;2023-06-22T14:35:25;15.90;;;14.30;;
34204;SDS011;20471;49.680;20.074;2023-06-22T14:37:51;15.40;;;13.80;;
34204;SDS011;20471;49.680;20.074;2023-06-22T14:41:01;15.20;;;13.70;;
34204;SDS011;20471;49.680;20.074;2023-06-22T14:43:27;15.40;;;13.90;;
34204;SDS011;20471;49.680;20.074;2023-06-22T14:46:11;15.00;;;13.60;;
34204;SDS011;20471;49.680;20.074;2023-06-22T14:48:40;16.00;;;14.30;;
34204;SDS011;20471;49.680;20.074;2023-06-22T14:51:10;16.50;;;14.00;;
34204;SDS011;20471;49.680;20.074;2023-06-22T14:53:48;16.80;;;13.60;;
34204;SDS011;20471;49.680;20.074;2023-06-22T14:56:28;14.50;;;13.00;;
34204;SDS011;20471;49.680;20.074;2023-06-22T14:58:58;15.10;;;13.60;;
34204;SDS011;20471;49.680;20.074;2023-06-22T15:01:26;14.40;;;13.00;;
34204;SDS011;20471;49.680;20.074;2023-06-22T15:03:54;16.10;;;13.60;;
34204;SDS011;20471;49.680;20.074;2023-06-22T15:06:28;14.80;;;13.40;;
34204;SDS011;20471;49.680;20.074;2023-06-22T15:09:04;14.40;;;12.90;;
34204;SDS011;20471;49.680;20.074;2023-06-22T15:11:30;14.50;;;13.10;;
34204;SDS011;20471;49.680;20.074;2023-06-22T15:14:15;13.70;;;12.40;;
34204;SDS011;20471;49.680;20.074;2023-06-22T15:16:41;14.00;;;12.60;;
34204;SDS011;20471;49.680;20.074;2023-06-22T15:19:15;14.00;;;12.60;;
34204;SDS011;20471;49.680;20.074;2023-06-22T15:21:44;13.20;;;12.00;;
34204;SDS011;20471;49.680;20.074;2023-06-22T15:24:10;13.90;;;12.50;;
34204;SDS011;20471;49.680;20.074;2023-06-22T15:27:06;13.70;;;12.10;;
34204;SDS011;20471;49.680;20.074;2023-06-22T15:29:34;13.90;;;12.30;;
34204;SDS011;20471;49.680;20.074;2023-06-22T15:32:08;14.20;;;12.40;;
34204;SDS011;20471;49.680;20.074;2023-06-22T15:34:34;14.10;;;12.60;;
34204;SDS011;20471;49.680;20.074;2023-06-22T15:37:09;15.20;;;13.00;;
34204;SDS011;20471;49.680;20.074;2023-06-22T15:39:42;14.60;;;12.20;;
34204;SDS011;20471;49.680;20.074;2023-06-22T15:42:11;16.40;;;12.40;;
34204;SDS011;20471;49.680;20.074;2023-06-22T15:44:46;13.90;;;12.50;;
34204;SDS011;20471;49.680;20.074;2023-06-22T15:47:18;12.30;;;11.00;;
34204;SDS011;20471;49.680;20.074;2023-06-22T15:49:47;13.20;;;12.00;;
34204;SDS011;20471;49.680;20.074;2023-06-22T15:52:14;14.20;;;12.70;;
34204;SDS011;20471;49.680;20.074;2023-06-22T15:55:07;13.20;;;12.00;;
34204;SDS011;20471;49.680;20.074;2023-06-22T15:57:35;12.80;;;11.50;;
34204;SDS011;20471;49.680;20.074;2023-06-22T16:02:55;12.40;;;11.20;;
34204;SDS011;20471;49.680;20.074;2023-06-22T16:05:36;12.80;;;11.50;;
34204;SDS011;20471;49.680;20.074;2023-06-22T16:08:02;14.70;;;12.20;;
34204;SDS011;20471;49.680;20.074;2023-06-22T16:10:28;17.50;;;11.50;;
34204;SDS011;20471;49.680;20.074;2023-06-22T16:12:57;13.20;;;11.80;;
34204;SDS011;20471;49.680;20.074;2023-06-22T16:18:10;16.00;;;12.10;;
34204;SDS011;20471;49.680;20.074;2023-06-22T16:20:39;12.40;;;11.20;;
34204;SDS011;20471;49.680;20.074;2023-06-22T16:23:15;12.80;;;11.50;;
34204;SDS011;20471;49.680;20.074;2023-06-22T16:25:55;14.20;;;11.50;;
34204;SDS011;20471;49.680;20.074;2023-06-22T16:28:24;13.70;;;12.30;;
34204;SDS011;20471;49.680;20.074;2023-06-22T16:30:53;13.10;;;11.70;;
34204;SDS011;20471;49.680;20.074;2023-06-22T16:33:23;12.80;;;11.40;;
34204;SDS011;20471;49.680;20.074;2023-06-22T16:35:57;11.90;;;10.60;;
34204;SDS011;20471;49.680;20.074;2023-06-22T16:38:27;12.30;;;10.80;;
34204;SDS011;20471;49.680;20.074;2023-06-22T16:41:21;12.30;;;11.20;;
34204;SDS011;20471;49.680;20.074;2023-06-22T16:43:57;12.20;;;11.10;;
34204;SDS011;20471;49.680;20.074;2023-06-22T16:46:31;13.10;;;11.30;;
34204;SDS011;20471;49.680;20.074;2023-06-22T16:52:03;11.70;;;10.50;;
34204;SDS011;20471;49.680;20.074;2023-06-22T16:55:05;12.70;;;11.00;;
34204;SDS011;20471;49.680;20.074;2023-06-22T16:57:47;11.80;;;10.70;;
34204;SDS011;20471;49.680;20.074;2023-06-22T17:00:25;11.80;;;10.40;;
34204;SDS011;20471;49.680;20.074;2023-06-22T17:02:59;15.00;;;11.30;;
34204;SDS011;20471;49.680;20.074;2023-06-22T17:05:37;12.10;;;10.90;;